createdAt,value
2022-08-16T00:04:30.831Z,96.81
2022-08-16T00:09:31.747Z,96.81
2022-08-16T00:14:36.480Z,95.22
2022-08-16T00:19:41.924Z,95.70
2022-08-16T00:24:44.932Z,97.43
2022-08-16T00:29:47.715Z,97.10
2022-08-16T00:35:02.892Z,97.03
2022-08-16T00:40:34.276Z,96.19
2022-08-16T00:45:58.303Z,97.17
2022-08-16T00:51:03.680Z,96.87
2022-08-16T00:56:10.108Z,97.94
2022-08-16T01:01:32.659Z,98.49
2022-08-16T01:06:40.321Z,98.42
2022-08-16T01:11:51.728Z,99.22
2022-08-16T01:16:58.708Z,98.83
2022-08-16T01:22:46.826Z,98.40
2022-08-16T01:27:34.438Z,97.89
2022-08-16T01:32:38.642Z,97.93
2022-08-16T01:37:42.573Z,97.05
2022-08-16T01:42:49.680Z,96.53
2022-08-16T01:47:55.342Z,97.68
2022-08-16T01:53:00.486Z,97.30
2022-08-16T01:58:31.682Z,97.50
2022-08-16T02:03:33.519Z,98.97
2022-08-16T02:08:34.488Z,98.49
2022-08-16T02:13:41.631Z,98.78
2022-08-16T02:18:43.770Z,98.04
2022-08-16T02:23:50.931Z,98.34
2022-08-16T02:28:57.935Z,98.53
2022-08-16T02:33:58.557Z,98.95
2022-08-16T02:39:10.838Z,99.30
2022-08-16T02:44:14.676Z,99.78
2022-08-16T02:49:20.510Z,98.87
2022-08-16T02:54:23.934Z,97.71
2022-08-16T02:59:27.496Z,96.74
2022-08-16T03:04:51.148Z,96.01
2022-08-16T03:09:54.802Z,95.51
2022-08-16T03:14:59.212Z,95.29
2022-08-16T03:20:02.891Z,95.32
2022-08-16T03:25:12.597Z,95.96
2022-08-16T03:30:26.641Z,97.06
2022-08-16T03:35:34.035Z,97.59
2022-08-16T03:40:42.889Z,97.93
2022-08-16T03:45:45.405Z,98.43
2022-08-16T03:50:59.817Z,98.11
2022-08-16T03:56:01.881Z,98.27
2022-08-16T04:01:05.417Z,98.25
2022-08-16T04:06:08.358Z,98.78
2022-08-16T04:11:10.730Z,97.14
2022-08-16T04:16:27.446Z,96.66
2022-08-16T04:21:45.907Z,96.81
2022-08-16T04:26:51.912Z,97.12
2022-08-16T04:31:58.210Z,95.90
2022-08-16T04:37:05.163Z,95.78
2022-08-16T04:42:11.273Z,95.33
2022-08-16T04:47:21.555Z,95.19
2022-08-16T04:52:34.190Z,95.19
2022-08-16T04:57:38.043Z,94.79
2022-08-16T05:02:42.887Z,94.27
2022-08-16T05:07:59.662Z,93.97
2022-08-16T05:13:06.419Z,93.53
2022-08-16T05:18:09.301Z,92.98
2022-08-16T05:23:25.567Z,92.67
2022-08-16T05:28:39.068Z,91.85
2022-08-16T05:33:42.791Z,91.60
2022-08-16T05:38:43.996Z,91.16
2022-08-16T05:43:48.164Z,91.10
2022-08-16T05:49:09.039Z,90.13
2022-08-16T05:54:17.382Z,89.25
2022-08-16T05:59:30.476Z,88.92
2022-08-16T06:04:36.022Z,88.42
2022-08-16T06:09:43.560Z,87.62
2022-08-16T06:14:45.955Z,86.32
2022-08-16T06:19:48.281Z,84.79
2022-08-16T06:24:55.329Z,82.41
2022-08-16T06:29:57.470Z,80.75
2022-08-16T06:35:02.808Z,78.89
2022-08-16T06:40:12.489Z,77.14
2022-08-16T06:45:21.453Z,76.00
2022-08-16T06:50:35.409Z,74.09
2022-08-16T06:55:40.228Z,73.42
2022-08-16T07:00:45.387Z,70.79
2022-08-16T07:05:47.689Z,68.96
2022-08-16T07:10:56.576Z,68.51
2022-08-16T07:16:01.657Z,67.58
2022-08-16T07:21:04.410Z,67.38
2022-08-16T07:26:08.834Z,65.36
2022-08-16T07:31:13.032Z,64.10
2022-08-16T07:36:21.872Z,62.59
2022-08-16T07:41:23.234Z,61.96
2022-08-16T07:46:38.822Z,59.27
2022-08-16T07:52:02.583Z,59.27
2022-08-16T07:57:21.036Z,59.73
2022-08-16T08:02:27.369Z,58.79
2022-08-16T08:07:32.540Z,55.48
2022-08-16T08:12:35.707Z,55.85
2022-08-16T08:17:42.978Z,53.84
2022-08-16T08:22:48.526Z,54.14
2022-08-16T08:27:50.476Z,53.20
2022-08-16T08:33:01.072Z,52.82
2022-08-16T08:38:08.220Z,52.45
2022-08-16T08:43:18.017Z,51.11
2022-08-16T08:48:34.219Z,51.77
2022-08-16T08:53:40.029Z,50.37
2022-08-16T08:58:54.041Z,49.79
2022-08-16T09:04:05.970Z,49.22
2022-08-16T09:09:09.611Z,49.49
2022-08-16T09:14:23.839Z,48.65
2022-08-16T09:19:33.082Z,48.47
2022-08-16T09:24:52.127Z,47.46
2022-08-16T09:30:00.245Z,47.68
2022-08-16T09:35:02.429Z,47.56
2022-08-16T09:40:32.907Z,47.90
2022-08-16T09:45:28.811Z,47.05
2022-08-16T09:50:37.278Z,47.14
2022-08-16T09:55:44.506Z,46.17
2022-08-16T10:00:45.879Z,45.16
2022-08-16T10:05:47.160Z,45.94
2022-08-16T10:11:03.333Z,44.01
2022-08-16T10:21:15.636Z,43.73
2022-08-16T10:27:16.840Z,42.71
2022-08-16T10:31:45.325Z,43.61
2022-08-16T10:36:46.946Z,42.92
2022-08-16T10:41:56.374Z,42.43
2022-08-16T10:46:59.703Z,41.61
2022-08-16T10:52:18.073Z,40.39
2022-08-16T10:57:24.562Z,38.78
2022-08-16T11:02:57.530Z,38.64
2022-08-16T11:07:51.931Z,39.42
2022-08-16T11:12:56.441Z,40.91
2022-08-16T11:23:18.275Z,39.91
2022-08-16T11:33:58.890Z,38.25
2022-08-16T11:39:01.013Z,38.44
2022-08-16T11:44:03.197Z,38.10
2022-08-16T11:49:08.618Z,37.90
2022-08-16T11:54:20.918Z,37.55
2022-08-16T11:59:28.459Z,37.83
2022-08-16T12:04:30.202Z,37.48
2022-08-16T12:09:31.172Z,37.68
2022-08-16T12:14:35.241Z,37.18
2022-08-16T12:19:36.482Z,36.87
2022-08-16T12:24:38.693Z,35.25
2022-08-16T12:29:40.619Z,35.72
2022-08-16T12:34:50.402Z,35.10
2022-08-16T12:39:56.171Z,34.46
2022-08-16T12:44:58.277Z,34.16
2022-08-16T12:49:58.970Z,33.95
2022-08-16T12:55:00.824Z,34.19
2022-08-16T13:00:02.855Z,33.77
2022-08-16T13:05:03.560Z,32.99
2022-08-16T13:10:21.197Z,32.43
2022-08-16T13:15:31.878Z,33.50
2022-08-16T13:20:37.034Z,33.75
2022-08-16T13:25:43.720Z,34.16
2022-08-16T13:30:50.497Z,34.82
2022-08-16T13:35:55.663Z,34.25
2022-08-16T13:41:02.286Z,34.60
2022-08-16T13:46:06.638Z,33.96
2022-08-16T13:51:07.666Z,35.16
2022-08-16T13:56:08.848Z,34.44
2022-08-16T14:01:12.672Z,33.87
2022-08-16T14:06:14.230Z,33.32
2022-08-16T14:11:16.478Z,32.58
2022-08-16T14:16:24.315Z,32.94
2022-08-16T14:21:35.428Z,32.51
2022-08-16T14:26:36.500Z,32.50
2022-08-16T14:31:39.746Z,33.36
2022-08-16T14:36:42.233Z,33.79
2022-08-16T14:41:43.138Z,32.17
2022-08-16T14:46:45.128Z,31.56
2022-08-16T14:51:46.364Z,31.22
2022-08-16T14:56:54.831Z,31.25
2022-08-16T15:02:00.738Z,31.10
2022-08-16T15:07:01.839Z,31.22
2022-08-16T15:12:07.253Z,30.90
2022-08-16T15:17:35.790Z,31.02
2022-08-16T15:22:40.768Z,30.91
2022-08-16T15:27:43.512Z,31.54
2022-08-16T15:32:45.866Z,32.32
2022-08-16T15:37:46.626Z,32.33
2022-08-16T15:42:57.670Z,33.48
2022-08-16T15:47:59.604Z,33.88
2022-08-16T15:53:12.564Z,34.06
2022-08-16T15:58:34.497Z,33.54
2022-08-16T16:03:36.202Z,33.07
2022-08-16T16:08:38.877Z,32.66
2022-08-16T16:13:40.573Z,32.26
2022-08-16T16:18:42.618Z,32.01
2022-08-16T16:23:54.739Z,31.47
2022-08-16T16:29:07.599Z,31.26
2022-08-16T16:34:16.553Z,30.50
2022-08-16T16:39:17.789Z,30.75
2022-08-16T16:44:32.109Z,31.38
2022-08-16T16:49:36.526Z,29.52
2022-08-16T16:54:42.474Z,29.61
2022-08-16T16:59:43.064Z,29.60
2022-08-16T17:04:47.200Z,31.63
2022-08-16T17:09:48.162Z,31.95
2022-08-16T17:14:48.778Z,31.13
2022-08-16T17:19:51.217Z,33.29
2022-08-16T17:24:53.312Z,35.17
2022-08-16T17:29:55.557Z,36.02
2022-08-16T17:35:00.418Z,35.75
2022-08-16T17:40:06.246Z,36.44
2022-08-16T17:45:23.084Z,37.08
2022-08-16T17:50:25.538Z,37.75
2022-08-16T17:55:30.977Z,37.19
2022-08-16T18:00:32.053Z,38.29
2022-08-16T18:05:34.253Z,40.01
2022-08-16T18:10:36.487Z,40.85
2022-08-16T18:15:37.747Z,41.54
2022-08-16T18:20:56.485Z,41.60
2022-08-16T18:25:58.729Z,41.58
2022-08-16T18:31:01.146Z,42.16
2022-08-16T18:36:20.504Z,42.20
2022-08-16T18:41:24.110Z,41.41
2022-08-16T18:46:24.739Z,41.86
2022-08-16T18:51:26.976Z,43.99
2022-08-16T18:56:56.797Z,44.48
2022-08-16T19:01:49.856Z,45.40
2022-08-16T19:06:51.879Z,45.14
2022-08-16T19:11:52.524Z,45.08
2022-08-16T19:16:53.775Z,46.01
2022-08-16T19:21:55.805Z,46.71
2022-08-16T19:26:57.197Z,48.16
2022-08-16T19:31:58.142Z,49.31
2022-08-16T19:37:00.138Z,50.10
2022-08-16T19:42:11.416Z,50.56
2022-08-16T19:47:12.254Z,51.12
2022-08-16T19:52:17.727Z,51.79
2022-08-16T19:57:19.396Z,52.28
2022-08-16T20:02:25.541Z,52.30
2022-08-16T20:07:38.770Z,52.86
2022-08-16T20:12:41.446Z,53.66
2022-08-16T20:17:43.975Z,54.04
2022-08-16T20:22:54.598Z,54.46
2022-08-16T20:27:56.026Z,54.55
2022-08-16T20:32:57.512Z,55.36
2022-08-16T20:38:00.949Z,55.99
2022-08-16T20:43:07.319Z,56.53
2022-08-16T20:48:08.105Z,57.41
2022-08-16T20:53:10.584Z,57.18
2022-08-16T20:58:11.194Z,57.35
2022-08-16T21:03:13.922Z,58.22
2022-08-16T21:08:51.143Z,57.74
2022-08-16T21:13:42.506Z,58.02
2022-08-16T21:18:44.145Z,58.61
2022-08-16T21:23:46.131Z,58.88
2022-08-16T21:28:46.781Z,58.48
2022-08-16T21:33:54.812Z,57.28
2022-08-16T21:38:57.289Z,57.13
2022-08-16T21:43:57.916Z,56.92
2022-08-16T21:48:58.597Z,56.99
2022-08-16T21:54:02.289Z,56.37
2022-08-16T21:59:07.005Z,56.59
2022-08-16T22:04:37.579Z,56.76
2022-08-16T22:09:31.273Z,57.24
2022-08-16T22:14:32.134Z,57.31
2022-08-16T22:19:32.724Z,57.92
2022-08-16T22:24:34.774Z,58.42
2022-08-16T22:29:35.421Z,57.45
2022-08-16T22:34:40.157Z,57.76
2022-08-16T22:39:42.102Z,57.88
2022-08-16T22:44:46.286Z,58.60
2022-08-16T22:49:47.211Z,58.31
2022-08-16T22:54:49.320Z,59.37
2022-08-16T22:59:50.187Z,59.22
2022-08-16T23:04:53.998Z,59.01
2022-08-16T23:09:55.943Z,58.87
2022-08-16T23:14:57.385Z,59.26
2022-08-16T23:19:58.957Z,60.00
2022-08-16T23:25:01.796Z,59.75
2022-08-16T23:30:02.439Z,60.05
2022-08-16T23:35:04.118Z,59.67
2022-08-16T23:40:07.566Z,60.15
2022-08-16T23:45:09.272Z,60.48
2022-08-16T23:50:10.534Z,60.33
2022-08-16T23:55:12.799Z,61.53
